sensor_id;sensor_type;location;lat;lon;timestamp;temperature;humidity
17092;DHT22;8661;45.700;4.880;2023-07-08T00:00:10;24.90;83.40
17092;DHT22;8661;45.700;4.880;2023-07-08T00:02:37;24.90;82.80
17092;DHT22;8661;45.700;4.880;2023-07-08T00:05:05;25.00;82.60
17092;DHT22;8661;45.700;4.880;2023-07-08T00:07:33;25.00;82.40
17092;DHT22;8661;45.700;4.880;2023-07-08T00:10:00;25.00;82.50
17092;DHT22;8661;45.700;4.880;2023-07-08T00:12:27;25.00;82.60
17092;DHT22;8661;45.700;4.880;2023-07-08T00:14:53;25.00;82.50
17092;DHT22;8661;45.700;4.880;2023-07-08T00:17:21;24.90;82.60
17092;DHT22;8661;45.700;4.880;2023-07-08T00:19:48;25.00;82.60
17092;DHT22;8661;45.700;4.880;2023-07-08T00:22:16;24.90;82.60
17092;DHT22;8661;45.700;4.880;2023-07-08T00:24:44;24.90;82.80
17092;DHT22;8661;45.700;4.880;2023-07-08T00:27:12;24.90;83.00
17092;DHT22;8661;45.700;4.880;2023-07-08T00:29:39;24.90;83.00
17092;DHT22;8661;45.700;4.880;2023-07-08T00:32:11;24.80;83.20
17092;DHT22;8661;45.700;4.880;2023-07-08T00:34:39;24.80;83.40
17092;DHT22;8661;45.700;4.880;2023-07-08T00:37:10;24.80;83.50
17092;DHT22;8661;45.700;4.880;2023-07-08T00:39:37;24.80;83.60
17092;DHT22;8661;45.700;4.880;2023-07-08T00:42:16;24.70;83.70
17092;DHT22;8661;45.700;4.880;2023-07-08T00:44:43;24.70;84.10
17092;DHT22;8661;45.700;4.880;2023-07-08T00:47:12;24.70;84.10
17092;DHT22;8661;45.700;4.880;2023-07-08T00:49:43;24.70;84.30
17092;DHT22;8661;45.700;4.880;2023-07-08T00:52:19;24.60;85.10
17092;DHT22;8661;45.700;4.880;2023-07-08T00:54:46;24.60;85.50
17092;DHT22;8661;45.700;4.880;2023-07-08T00:57:17;24.50;86.50
17092;DHT22;8661;45.700;4.880;2023-07-08T00:59:47;24.50;86.20
17092;DHT22;8661;45.700;4.880;2023-07-08T01:02:18;24.50;85.80
17092;DHT22;8661;45.700;4.880;2023-07-08T01:04:50;24.50;85.70
17092;DHT22;8661;45.700;4.880;2023-07-08T01:07:19;24.50;85.50
17092;DHT22;8661;45.700;4.880;2023-07-08T01:09:51;24.50;85.30
17092;DHT22;8661;45.700;4.880;2023-07-08T01:12:25;24.50;85.20
17092;DHT22;8661;45.700;4.880;2023-07-08T01:14:54;24.50;85.30
17092;DHT22;8661;45.700;4.880;2023-07-08T01:17:22;24.40;85.40
17092;DHT22;8661;45.700;4.880;2023-07-08T01:19:49;24.40;85.30
17092;DHT22;8661;45.700;4.880;2023-07-08T01:22:18;24.40;85.50
17092;DHT22;8661;45.700;4.880;2023-07-08T01:24:46;24.40;85.80
17092;DHT22;8661;45.700;4.880;2023-07-08T01:27:16;24.40;86.40
17092;DHT22;8661;45.700;4.880;2023-07-08T01:29:44;24.40;86.70
17092;DHT22;8661;45.700;4.880;2023-07-08T01:32:13;24.30;86.80
17092;DHT22;8661;45.700;4.880;2023-07-08T01:34:44;24.30;87.20
17092;DHT22;8661;45.700;4.880;2023-07-08T01:37:30;24.20;87.80
17092;DHT22;8661;45.700;4.880;2023-07-08T01:40:13;24.20;90.00
17092;DHT22;8661;45.700;4.880;2023-07-08T01:42:40;24.10;90.50
17092;DHT22;8661;45.700;4.880;2023-07-08T01:45:10;24.10;90.60
17092;DHT22;8661;45.700;4.880;2023-07-08T01:47:39;24.00;90.80
17092;DHT22;8661;45.700;4.880;2023-07-08T01:50:07;24.00;91.10
17092;DHT22;8661;45.700;4.880;2023-07-08T01:52:37;23.90;91.20
17092;DHT22;8661;45.700;4.880;2023-07-08T01:55:05;23.90;91.10
17092;DHT22;8661;45.700;4.880;2023-07-08T01:57:32;23.80;91.00
17092;DHT22;8661;45.700;4.880;2023-07-08T01:59:58;23.80;91.10
17092;DHT22;8661;45.700;4.880;2023-07-08T02:02:25;23.80;91.20
17092;DHT22;8661;45.700;4.880;2023-07-08T02:04:52;23.80;91.20
17092;DHT22;8661;45.700;4.880;2023-07-08T02:07:19;23.80;91.40
17092;DHT22;8661;45.700;4.880;2023-07-08T02:09:47;23.80;91.40
17092;DHT22;8661;45.700;4.880;2023-07-08T02:12:14;23.80;91.30
17092;DHT22;8661;45.700;4.880;2023-07-08T02:14:41;23.80;91.20
17092;DHT22;8661;45.700;4.880;2023-07-08T02:17:08;23.80;91.30
17092;DHT22;8661;45.700;4.880;2023-07-08T02:19:35;23.80;91.30
17092;DHT22;8661;45.700;4.880;2023-07-08T02:22:02;23.70;91.30
17092;DHT22;8661;45.700;4.880;2023-07-08T02:24:30;23.70;91.50
17092;DHT22;8661;45.700;4.880;2023-07-08T02:26:58;23.70;91.80
17092;DHT22;8661;45.700;4.880;2023-07-08T02:29:25;23.70;92.10
17092;DHT22;8661;45.700;4.880;2023-07-08T02:31:52;23.70;92.50
17092;DHT22;8661;45.700;4.880;2023-07-08T02:34:19;23.60;92.70
17092;DHT22;8661;45.700;4.880;2023-07-08T02:36:46;23.60;92.80
17092;DHT22;8661;45.700;4.880;2023-07-08T02:39:13;23.60;92.70
17092;DHT22;8661;45.700;4.880;2023-07-08T02:41:40;23.60;92.40
17092;DHT22;8661;45.700;4.880;2023-07-08T02:44:08;23.70;92.20
17092;DHT22;8661;45.700;4.880;2023-07-08T02:46:35;23.70;92.10
17092;DHT22;8661;45.700;4.880;2023-07-08T02:49:02;23.60;92.00
17092;DHT22;8661;45.700;4.880;2023-07-08T02:51:29;23.60;91.90
17092;DHT22;8661;45.700;4.880;2023-07-08T02:53:56;23.60;92.10
17092;DHT22;8661;45.700;4.880;2023-07-08T02:56:23;23.60;92.40
17092;DHT22;8661;45.700;4.880;2023-07-08T02:58:52;23.60;92.30
17092;DHT22;8661;45.700;4.880;2023-07-08T03:01:20;23.60;92.80
17092;DHT22;8661;45.700;4.880;2023-07-08T03:03:47;23.60;92.20
17092;DHT22;8661;45.700;4.880;2023-07-08T03:06:15;23.60;92.30
17092;DHT22;8661;45.700;4.880;2023-07-08T03:08:42;23.60;92.30
17092;DHT22;8661;45.700;4.880;2023-07-08T03:11:09;23.60;92.20
17092;DHT22;8661;45.700;4.880;2023-07-08T03:13:36;23.50;92.30
17092;DHT22;8661;45.700;4.880;2023-07-08T03:16:03;23.60;92.70
17092;DHT22;8661;45.700;4.880;2023-07-08T03:18:39;23.50;92.80
17092;DHT22;8661;45.700;4.880;2023-07-08T03:21:12;23.50;92.70
17092;DHT22;8661;45.700;4.880;2023-07-08T03:23:40;23.50;92.50
17092;DHT22;8661;45.700;4.880;2023-07-08T03:26:07;23.50;92.50
17092;DHT22;8661;45.700;4.880;2023-07-08T03:28:34;23.50;92.60
17092;DHT22;8661;45.700;4.880;2023-07-08T03:31:01;23.50;92.50
17092;DHT22;8661;45.700;4.880;2023-07-08T03:33:28;23.50;92.50
17092;DHT22;8661;45.700;4.880;2023-07-08T03:35:56;23.50;92.60
17092;DHT22;8661;45.700;4.880;2023-07-08T03:38:23;23.50;92.40
17092;DHT22;8661;45.700;4.880;2023-07-08T03:40:50;23.50;92.50
17092;DHT22;8661;45.700;4.880;2023-07-08T03:43:17;23.50;92.50
17092;DHT22;8661;45.700;4.880;2023-07-08T03:45:44;23.50;92.40
17092;DHT22;8661;45.700;4.880;2023-07-08T03:48:11;23.50;92.30
17092;DHT22;8661;45.700;4.880;2023-07-08T03:50:39;23.50;92.20
17092;DHT22;8661;45.700;4.880;2023-07-08T03:53:09;23.50;92.20
17092;DHT22;8661;45.700;4.880;2023-07-08T03:55:35;23.40;92.20
17092;DHT22;8661;45.700;4.880;2023-07-08T03:58:02;23.50;92.20
17092;DHT22;8661;45.700;4.880;2023-07-08T04:00:29;23.40;92.30
17092;DHT22;8661;45.700;4.880;2023-07-08T04:02:56;23.40;92.10
17092;DHT22;8661;45.700;4.880;2023-07-08T04:05:23;23.50;92.10
17092;DHT22;8661;45.700;4.880;2023-07-08T04:07:51;23.50;92.00
17092;DHT22;8661;45.700;4.880;2023-07-08T04:10:19;23.50;92.00
17092;DHT22;8661;45.700;4.880;2023-07-08T04:12:46;23.50;91.90
17092;DHT22;8661;45.700;4.880;2023-07-08T04:15:13;23.40;91.80
17092;DHT22;8661;45.700;4.880;2023-07-08T04:17:43;23.40;91.80
17092;DHT22;8661;45.700;4.880;2023-07-08T04:20:12;23.40;91.70
17092;DHT22;8661;45.700;4.880;2023-07-08T04:22:39;23.40;91.60
17092;DHT22;8661;45.700;4.880;2023-07-08T04:25:07;23.40;91.60
17092;DHT22;8661;45.700;4.880;2023-07-08T04:27:38;23.40;91.60
17092;DHT22;8661;45.700;4.880;2023-07-08T04:30:06;23.40;91.60
17092;DHT22;8661;45.700;4.880;2023-07-08T04:32:33;23.40;91.60
17092;DHT22;8661;45.700;4.880;2023-07-08T04:35:03;23.40;91.60
17092;DHT22;8661;45.700;4.880;2023-07-08T04:37:30;23.40;91.50
17092;DHT22;8661;45.700;4.880;2023-07-08T04:39:57;23.40;91.60
17092;DHT22;8661;45.700;4.880;2023-07-08T04:42:25;23.40;91.60
17092;DHT22;8661;45.700;4.880;2023-07-08T04:44:55;23.40;91.60
17092;DHT22;8661;45.700;4.880;2023-07-08T04:47:22;23.40;91.70
17092;DHT22;8661;45.700;4.880;2023-07-08T04:49:49;23.30;91.70
17092;DHT22;8661;45.700;4.880;2023-07-08T04:52:16;23.30;91.80
17092;DHT22;8661;45.700;4.880;2023-07-08T04:54:42;23.30;92.00
17092;DHT22;8661;45.700;4.880;2023-07-08T04:57:09;23.20;92.10
17092;DHT22;8661;45.700;4.880;2023-07-08T04:59:36;23.20;92.20
17092;DHT22;8661;45.700;4.880;2023-07-08T05:02:04;23.20;92.30
17092;DHT22;8661;45.700;4.880;2023-07-08T05:04:31;23.20;92.50
17092;DHT22;8661;45.700;4.880;2023-07-08T05:06:58;23.20;92.50
17092;DHT22;8661;45.700;4.880;2023-07-08T05:09:25;23.10;92.60
17092;DHT22;8661;45.700;4.880;2023-07-08T05:11:52;23.10;92.70
17092;DHT22;8661;45.700;4.880;2023-07-08T05:14:19;23.10;92.90
17092;DHT22;8661;45.700;4.880;2023-07-08T05:16:46;23.00;93.10
17092;DHT22;8661;45.700;4.880;2023-07-08T05:19:15;23.00;93.20
17092;DHT22;8661;45.700;4.880;2023-07-08T05:21:42;23.00;93.30
17092;DHT22;8661;45.700;4.880;2023-07-08T05:24:11;22.90;93.40
17092;DHT22;8661;45.700;4.880;2023-07-08T05:26:37;22.90;93.50
17092;DHT22;8661;45.700;4.880;2023-07-08T05:29:04;23.00;93.50
17092;DHT22;8661;45.700;4.880;2023-07-08T05:31:33;23.30;93.20
17092;DHT22;8661;45.700;4.880;2023-07-08T05:34:00;23.50;92.90
17092;DHT22;8661;45.700;4.880;2023-07-08T05:36:29;23.80;92.70
17092;DHT22;8661;45.700;4.880;2023-07-08T05:38:56;24.00;92.50
17092;DHT22;8661;45.700;4.880;2023-07-08T05:41:23;24.20;92.10
17092;DHT22;8661;45.700;4.880;2023-07-08T05:43:50;24.40;91.80
17092;DHT22;8661;45.700;4.880;2023-07-08T05:46:17;24.50;91.60
17092;DHT22;8661;45.700;4.880;2023-07-08T05:48:44;24.70;91.50
17092;DHT22;8661;45.700;4.880;2023-07-08T05:51:11;24.90;91.10
17092;DHT22;8661;45.700;4.880;2023-07-08T05:53:39;25.10;90.70
17092;DHT22;8661;45.700;4.880;2023-07-08T05:56:06;25.40;90.50
17092;DHT22;8661;45.700;4.880;2023-07-08T05:58:33;25.70;90.10
17092;DHT22;8661;45.700;4.880;2023-07-08T06:01:00;25.70;89.40
17092;DHT22;8661;45.700;4.880;2023-07-08T06:03:27;25.70;89.80
17092;DHT22;8661;45.700;4.880;2023-07-08T06:05:54;25.90;89.20
17092;DHT22;8661;45.700;4.880;2023-07-08T06:08:21;26.00;89.00
17092;DHT22;8661;45.700;4.880;2023-07-08T06:10:50;26.20;88.80
17092;DHT22;8661;45.700;4.880;2023-07-08T06:13:17;26.50;88.10
17092;DHT22;8661;45.700;4.880;2023-07-08T06:15:44;26.70;87.60
17092;DHT22;8661;45.700;4.880;2023-07-08T06:18:11;26.90;86.40
17092;DHT22;8661;45.700;4.880;2023-07-08T06:20:38;27.10;85.90
17092;DHT22;8661;45.700;4.880;2023-07-08T06:23:05;27.30;85.90
17092;DHT22;8661;45.700;4.880;2023-07-08T06:25:32;27.60;85.20
17092;DHT22;8661;45.700;4.880;2023-07-08T06:28:01;27.90;84.70
17092;DHT22;8661;45.700;4.880;2023-07-08T06:30:28;28.10;84.00
17092;DHT22;8661;45.700;4.880;2023-07-08T06:32:54;28.30;83.30
17092;DHT22;8661;45.700;4.880;2023-07-08T06:35:21;28.40;82.90
17092;DHT22;8661;45.700;4.880;2023-07-08T06:37:48;28.30;82.30
17092;DHT22;8661;45.700;4.880;2023-07-08T06:40:15;28.50;82.10
17092;DHT22;8661;45.700;4.880;2023-07-08T06:42:45;28.50;81.40
17092;DHT22;8661;45.700;4.880;2023-07-08T06:45:13;28.60;80.90
17092;DHT22;8661;45.700;4.880;2023-07-08T06:47:40;28.70;80.50
17092;DHT22;8661;45.700;4.880;2023-07-08T06:50:08;28.70;80.50
17092;DHT22;8661;45.700;4.880;2023-07-08T06:52:35;28.80;80.20
17092;DHT22;8661;45.700;4.880;2023-07-08T06:55:04;29.20;79.70
17092;DHT22;8661;45.700;4.880;2023-07-08T06:57:31;29.20;79.10
17092;DHT22;8661;45.700;4.880;2023-07-08T06:59:58;29.40;78.50
17092;DHT22;8661;45.700;4.880;2023-07-08T07:02:27;29.50;77.80
17092;DHT22;8661;45.700;4.880;2023-07-08T07:04:54;29.70;77.40
17092;DHT22;8661;45.700;4.880;2023-07-08T07:07:21;30.00;76.80
17092;DHT22;8661;45.700;4.880;2023-07-08T07:09:48;30.10;76.20
17092;DHT22;8661;45.700;4.880;2023-07-08T07:12:15;30.40;75.60
17092;DHT22;8661;45.700;4.880;2023-07-08T07:14:42;30.80;74.60
17092;DHT22;8661;45.700;4.880;2023-07-08T07:17:09;30.80;73.60
17092;DHT22;8661;45.700;4.880;2023-07-08T07:19:37;30.80;73.90
17092;DHT22;8661;45.700;4.880;2023-07-08T07:22:05;31.10;73.70
17092;DHT22;8661;45.700;4.880;2023-07-08T07:24:32;31.50;73.40
17092;DHT22;8661;45.700;4.880;2023-07-08T07:26:59;31.40;72.70
17092;DHT22;8661;45.700;4.880;2023-07-08T07:29:26;31.40;73.10
17092;DHT22;8661;45.700;4.880;2023-07-08T07:31:52;31.50;73.30
17092;DHT22;8661;45.700;4.880;2023-07-08T07:34:20;31.50;76.50
17092;DHT22;8661;45.700;4.880;2023-07-08T07:36:49;31.20;74.30
17092;DHT22;8661;45.700;4.880;2023-07-08T07:39:15;30.80;74.30
17092;DHT22;8661;45.700;4.880;2023-07-08T07:41:42;30.80;75.30
17092;DHT22;8661;45.700;4.880;2023-07-08T07:44:09;31.10;76.50
17092;DHT22;8661;45.700;4.880;2023-07-08T07:46:36;31.60;76.90
17092;DHT22;8661;45.700;4.880;2023-07-08T07:49:03;32.00;75.20
17092;DHT22;8661;45.700;4.880;2023-07-08T07:51:30;32.20;76.10
17092;DHT22;8661;45.700;4.880;2023-07-08T07:53:58;32.20;74.80
17092;DHT22;8661;45.700;4.880;2023-07-08T07:56:25;32.00;74.40
17092;DHT22;8661;45.700;4.880;2023-07-08T07:58:52;32.10;74.30
17092;DHT22;8661;45.700;4.880;2023-07-08T08:01:19;31.90;74.40
17092;DHT22;8661;45.700;4.880;2023-07-08T08:03:48;31.60;75.40
17092;DHT22;8661;45.700;4.880;2023-07-08T08:06:16;31.50;75.40
17092;DHT22;8661;45.700;4.880;2023-07-08T08:08:44;31.60;74.20
17092;DHT22;8661;45.700;4.880;2023-07-08T08:11:12;31.90;74.00
17092;DHT22;8661;45.700;4.880;2023-07-08T08:13:39;31.90;72.80
17092;DHT22;8661;45.700;4.880;2023-07-08T08:16:06;32.00;73.10
17092;DHT22;8661;45.700;4.880;2023-07-08T08:18:33;32.00;73.90
17092;DHT22;8661;45.700;4.880;2023-07-08T08:21:00;32.10;73.20
17092;DHT22;8661;45.700;4.880;2023-07-08T08:23:27;32.50;73.20
17092;DHT22;8661;45.700;4.880;2023-07-08T08:25:54;33.20;72.50
17092;DHT22;8661;45.700;4.880;2023-07-08T08:28:22;33.80;69.80
17092;DHT22;8661;45.700;4.880;2023-07-08T08:30:49;34.20;68.50
17092;DHT22;8661;45.700;4.880;2023-07-08T08:33:17;34.60;66.30
17092;DHT22;8661;45.700;4.880;2023-07-08T08:35:45;34.60;65.10
17092;DHT22;8661;45.700;4.880;2023-07-08T08:38:12;34.80;65.50
17092;DHT22;8661;45.700;4.880;2023-07-08T08:40:40;35.00;66.20
17092;DHT22;8661;45.700;4.880;2023-07-08T08:43:12;35.20;64.60
17092;DHT22;8661;45.700;4.880;2023-07-08T08:45:46;35.40;64.50
17092;DHT22;8661;45.700;4.880;2023-07-08T08:48:17;35.50;61.30
17092;DHT22;8661;45.700;4.880;2023-07-08T08:50:51;35.60;62.50
17092;DHT22;8661;45.700;4.880;2023-07-08T08:53:20;35.60;62.70
17092;DHT22;8661;45.700;4.880;2023-07-08T08:55:51;36.00;62.80
17092;DHT22;8661;45.700;4.880;2023-07-08T08:58:29;36.50;61.50
17092;DHT22;8661;45.700;4.880;2023-07-08T09:01:01;36.90;60.60
17092;DHT22;8661;45.700;4.880;2023-07-08T09:03:36;36.70;59.50
17092;DHT22;8661;45.700;4.880;2023-07-08T09:06:45;36.60;59.90
17092;DHT22;8661;45.700;4.880;2023-07-08T09:11:21;36.80;58.30
17092;DHT22;8661;45.700;4.880;2023-07-08T09:12:42;36.80;58.40
17092;DHT22;8661;45.700;4.880;2023-07-08T09:15:13;36.90;58.80
17092;DHT22;8661;45.700;4.880;2023-07-08T09:17:41;37.30;58.50
17092;DHT22;8661;45.700;4.880;2023-07-08T09:20:17;37.50;58.50
17092;DHT22;8661;45.700;4.880;2023-07-08T09:22:51;37.90;57.60
17092;DHT22;8661;45.700;4.880;2023-07-08T09:25:25;37.70;58.50
17092;DHT22;8661;45.700;4.880;2023-07-08T09:27:54;38.10;57.70
17092;DHT22;8661;45.700;4.880;2023-07-08T09:30:23;38.50;57.00
17092;DHT22;8661;45.700;4.880;2023-07-08T09:32:52;38.40;56.70
17092;DHT22;8661;45.700;4.880;2023-07-08T09:35:22;38.50;55.50
17092;DHT22;8661;45.700;4.880;2023-07-08T09:37:50;37.80;56.10
17092;DHT22;8661;45.700;4.880;2023-07-08T09:40:19;38.00;55.70
17092;DHT22;8661;45.700;4.880;2023-07-08T09:42:50;38.20;55.50
17092;DHT22;8661;45.700;4.880;2023-07-08T09:45:25;38.20;54.90
17092;DHT22;8661;45.700;4.880;2023-07-08T09:47:55;37.30;55.90
17092;DHT22;8661;45.700;4.880;2023-07-08T09:50:24;37.40;56.40
17092;DHT22;8661;45.700;4.880;2023-07-08T09:52:53;37.40;55.70
17092;DHT22;8661;45.700;4.880;2023-07-08T09:55:20;37.50;55.90
17092;DHT22;8661;45.700;4.880;2023-07-08T09:57:49;37.30;55.20
17092;DHT22;8661;45.700;4.880;2023-07-08T10:00:25;37.30;55.20
17092;DHT22;8661;45.700;4.880;2023-07-08T10:02:56;37.60;56.00
17092;DHT22;8661;45.700;4.880;2023-07-08T10:05:27;37.80;55.60
17092;DHT22;8661;45.700;4.880;2023-07-08T10:07:57;37.90;55.00
17092;DHT22;8661;45.700;4.880;2023-07-08T10:10:31;38.10;53.90
17092;DHT22;8661;45.700;4.880;2023-07-08T10:13:01;37.90;54.40
17092;DHT22;8661;45.700;4.880;2023-07-08T10:15:33;38.10;54.50
17092;DHT22;8661;45.700;4.880;2023-07-08T10:18:04;38.60;55.00
17092;DHT22;8661;45.700;4.880;2023-07-08T10:20:38;38.50;54.20
17092;DHT22;8661;45.700;4.880;2023-07-08T10:23:27;38.50;54.70
17092;DHT22;8661;45.700;4.880;2023-07-08T10:26:00;38.70;54.00
17092;DHT22;8661;45.700;4.880;2023-07-08T10:28:37;38.40;53.90
17092;DHT22;8661;45.700;4.880;2023-07-08T10:31:21;38.60;54.50
17092;DHT22;8661;45.700;4.880;2023-07-08T10:34:19;38.90;54.00
17092;DHT22;8661;45.700;4.880;2023-07-08T10:36:53;38.80;53.00
17092;DHT22;8661;45.700;4.880;2023-07-08T10:39:45;38.50;53.90
17092;DHT22;8661;45.700;4.880;2023-07-08T10:42:35;38.30;53.50
17092;DHT22;8661;45.700;4.880;2023-07-08T10:45:12;38.60;53.50
17092;DHT22;8661;45.700;4.880;2023-07-08T10:47:52;38.80;52.70
17092;DHT22;8661;45.700;4.880;2023-07-08T10:50:50;38.80;53.40
17092;DHT22;8661;45.700;4.880;2023-07-08T10:53:46;39.20;53.50
17092;DHT22;8661;45.700;4.880;2023-07-08T10:56:31;39.30;51.70
17092;DHT22;8661;45.700;4.880;2023-07-08T10:59:28;39.20;52.80
17092;DHT22;8661;45.700;4.880;2023-07-08T11:05:36;39.80;53.30
17092;DHT22;8661;45.700;4.880;2023-07-08T11:08:14;40.30;52.00
17092;DHT22;8661;45.700;4.880;2023-07-08T11:10:52;40.30;51.90
17092;DHT22;8661;45.700;4.880;2023-07-08T11:13:42;40.50;51.80
17092;DHT22;8661;45.700;4.880;2023-07-08T11:16:23;40.50;51.40
17092;DHT22;8661;45.700;4.880;2023-07-08T11:18:56;40.10;50.80
17092;DHT22;8661;45.700;4.880;2023-07-08T11:21:29;39.50;51.50
17092;DHT22;8661;45.700;4.880;2023-07-08T11:24:30;39.70;52.00
17092;DHT22;8661;45.700;4.880;2023-07-08T11:27:17;40.20;51.10
17092;DHT22;8661;45.700;4.880;2023-07-08T11:29:55;39.80;51.50
17092;DHT22;8661;45.700;4.880;2023-07-08T11:32:45;40.20;52.10
17092;DHT22;8661;45.700;4.880;2023-07-08T11:35:21;40.30;50.70
17092;DHT22;8661;45.700;4.880;2023-07-08T11:37:57;40.10;50.50
17092;DHT22;8661;45.700;4.880;2023-07-08T11:40:54;39.80;50.30
17092;DHT22;8661;45.700;4.880;2023-07-08T11:43:41;39.90;50.70
17092;DHT22;8661;45.700;4.880;2023-07-08T11:46:14;40.00;50.40
17092;DHT22;8661;45.700;4.880;2023-07-08T11:49:27;40.20;50.10
17092;DHT22;8661;45.700;4.880;2023-07-08T11:53:46;40.40;50.60
17092;DHT22;8661;45.700;4.880;2023-07-08T11:55:27;41.20;51.30
17092;DHT22;8661;45.700;4.880;2023-07-08T11:58:02;40.90;48.80
17092;DHT22;8661;45.700;4.880;2023-07-08T12:00:39;40.70;49.70
17092;DHT22;8661;45.700;4.880;2023-07-08T12:03:20;40.60;50.10
17092;DHT22;8661;45.700;4.880;2023-07-08T12:06:11;41.00;50.00
17092;DHT22;8661;45.700;4.880;2023-07-08T12:08:42;41.40;49.10
17092;DHT22;8661;45.700;4.880;2023-07-08T12:11:40;41.40;49.60
17092;DHT22;8661;45.700;4.880;2023-07-08T12:14:07;41.80;49.80
17092;DHT22;8661;45.700;4.880;2023-07-08T12:16:34;42.00;49.20
17092;DHT22;8661;45.700;4.880;2023-07-08T12:19:02;41.90;48.50
17092;DHT22;8661;45.700;4.880;2023-07-08T12:21:34;42.00;47.70
17092;DHT22;8661;45.700;4.880;2023-07-08T12:24:03;42.30;49.40
17092;DHT22;8661;45.700;4.880;2023-07-08T12:26:32;42.50;48.20
17092;DHT22;8661;45.700;4.880;2023-07-08T12:29:01;42.50;49.10
17092;DHT22;8661;45.700;4.880;2023-07-08T12:31:29;42.20;48.70
17092;DHT22;8661;45.700;4.880;2023-07-08T12:34:01;41.70;49.00
17092;DHT22;8661;45.700;4.880;2023-07-08T12:36:29;41.40;50.60
17092;DHT22;8661;45.700;4.880;2023-07-08T12:38:58;41.10;50.30
17092;DHT22;8661;45.700;4.880;2023-07-08T12:41:29;41.60;50.30
17092;DHT22;8661;45.700;4.880;2023-07-08T12:43:57;41.80;48.70
17092;DHT22;8661;45.700;4.880;2023-07-08T12:46:26;41.60;49.00
17092;DHT22;8661;45.700;4.880;2023-07-08T12:48:53;41.60;48.60
17092;DHT22;8661;45.700;4.880;2023-07-08T12:51:23;41.10;48.40
17092;DHT22;8661;45.700;4.880;2023-07-08T12:53:50;40.90;48.60
17092;DHT22;8661;45.700;4.880;2023-07-08T12:56:19;41.30;49.00
17092;DHT22;8661;45.700;4.880;2023-07-08T12:58:49;41.20;49.80
17092;DHT22;8661;45.700;4.880;2023-07-08T13:01:18;41.40;49.30
17092;DHT22;8661;45.700;4.880;2023-07-08T13:03:51;41.60;48.30
17092;DHT22;8661;45.700;4.880;2023-07-08T13:06:20;41.70;48.10
17092;DHT22;8661;45.700;4.880;2023-07-08T13:08:48;42.00;49.10
17092;DHT22;8661;45.700;4.880;2023-07-08T13:11:18;41.90;47.90
17092;DHT22;8661;45.700;4.880;2023-07-08T13:13:48;41.50;48.20
17092;DHT22;8661;45.700;4.880;2023-07-08T13:16:16;41.80;49.30
17092;DHT22;8661;45.700;4.880;2023-07-08T13:18:43;41.80;49.00
17092;DHT22;8661;45.700;4.880;2023-07-08T13:21:14;41.90;48.00
17092;DHT22;8661;45.700;4.880;2023-07-08T13:23:41;41.40;47.70
17092;DHT22;8661;45.700;4.880;2023-07-08T13:26:13;40.50;48.70
17092;DHT22;8661;45.700;4.880;2023-07-08T13:28:40;40.40;48.60
17092;DHT22;8661;45.700;4.880;2023-07-08T13:31:16;40.40;48.30
17092;DHT22;8661;45.700;4.880;2023-07-08T13:33:47;40.50;49.30
17092;DHT22;8661;45.700;4.880;2023-07-08T13:36:17;40.70;50.30
17092;DHT22;8661;45.700;4.880;2023-07-08T13:38:45;40.90;49.20
17092;DHT22;8661;45.700;4.880;2023-07-08T13:41:19;41.00;49.20
17092;DHT22;8661;45.700;4.880;2023-07-08T13:43:47;41.00;48.30
17092;DHT22;8661;45.700;4.880;2023-07-08T13:46:33;41.00;48.10
17092;DHT22;8661;45.700;4.880;2023-07-08T13:49:01;40.80;48.10
17092;DHT22;8661;45.700;4.880;2023-07-08T13:51:31;41.00;48.80
17092;DHT22;8661;45.700;4.880;2023-07-08T13:54:00;41.50;49.80
17092;DHT22;8661;45.700;4.880;2023-07-08T13:56:31;41.70;48.20
17092;DHT22;8661;45.700;4.880;2023-07-08T13:59:02;41.50;48.90
17092;DHT22;8661;45.700;4.880;2023-07-08T14:01:31;41.00;49.00
17092;DHT22;8661;45.700;4.880;2023-07-08T14:03:58;40.90;49.10
17092;DHT22;8661;45.700;4.880;2023-07-08T14:06:32;40.90;48.80
17092;DHT22;8661;45.700;4.880;2023-07-08T14:09:06;40.70;48.50
17092;DHT22;8661;45.700;4.880;2023-07-08T14:11:35;40.90;48.90
17092;DHT22;8661;45.700;4.880;2023-07-08T14:14:01;40.70;48.90
17092;DHT22;8661;45.700;4.880;2023-07-08T14:16:30;40.70;49.20
17092;DHT22;8661;45.700;4.880;2023-07-08T14:18:59;41.00;48.70
17092;DHT22;8661;45.700;4.880;2023-07-08T14:21:29;40.70;48.70
17092;DHT22;8661;45.700;4.880;2023-07-08T14:23:57;40.30;49.00
17092;DHT22;8661;45.700;4.880;2023-07-08T14:26:28;39.50;49.30
17092;DHT22;8661;45.700;4.880;2023-07-08T14:28:55;39.30;49.90
17092;DHT22;8661;45.700;4.880;2023-07-08T14:31:24;39.00;50.30
17092;DHT22;8661;45.700;4.880;2023-07-08T14:34:00;38.80;50.30
17092;DHT22;8661;45.700;4.880;2023-07-08T14:36:31;38.60;51.90
17092;DHT22;8661;45.700;4.880;2023-07-08T14:38:59;38.50;51.20
17092;DHT22;8661;45.700;4.880;2023-07-08T14:41:27;38.60;50.50
17092;DHT22;8661;45.700;4.880;2023-07-08T14:43:54;38.30;51.00
17092;DHT22;8661;45.700;4.880;2023-07-08T14:46:21;38.30;51.80
17092;DHT22;8661;45.700;4.880;2023-07-08T14:48:48;38.20;51.20
17092;DHT22;8661;45.700;4.880;2023-07-08T14:51:15;38.10;51.70
17092;DHT22;8661;45.700;4.880;2023-07-08T14:53:42;37.80;51.80
17092;DHT22;8661;45.700;4.880;2023-07-08T14:56:15;37.50;51.70
17092;DHT22;8661;45.700;4.880;2023-07-08T14:58:45;37.30;52.10
17092;DHT22;8661;45.700;4.880;2023-07-08T15:01:17;37.40;52.40
17092;DHT22;8661;45.700;4.880;2023-07-08T15:03:45;37.30;52.50
17092;DHT22;8661;45.700;4.880;2023-07-08T15:06:12;37.20;52.60
17092;DHT22;8661;45.700;4.880;2023-07-08T15:08:39;36.80;53.00
17092;DHT22;8661;45.700;4.880;2023-07-08T15:11:09;36.50;53.20
17092;DHT22;8661;45.700;4.880;2023-07-08T15:13:39;36.20;53.80
17092;DHT22;8661;45.700;4.880;2023-07-08T15:16:10;36.30;53.80
17092;DHT22;8661;45.700;4.880;2023-07-08T15:18:39;36.10;53.70
17092;DHT22;8661;45.700;4.880;2023-07-08T15:21:07;35.90;54.60
17092;DHT22;8661;45.700;4.880;2023-07-08T15:23:36;35.80;55.30
17092;DHT22;8661;45.700;4.880;2023-07-08T15:26:03;35.80;54.70
17092;DHT22;8661;45.700;4.880;2023-07-08T15:28:40;35.70;54.70
17092;DHT22;8661;45.700;4.880;2023-07-08T15:31:13;35.60;55.80
17092;DHT22;8661;45.700;4.880;2023-07-08T15:33:42;35.60;55.60
17092;DHT22;8661;45.700;4.880;2023-07-08T15:36:10;35.60;56.00
17092;DHT22;8661;45.700;4.880;2023-07-08T15:38:38;35.60;55.90
17092;DHT22;8661;45.700;4.880;2023-07-08T15:41:08;35.20;55.90
17092;DHT22;8661;45.700;4.880;2023-07-08T15:43:36;35.00;56.10
17092;DHT22;8661;45.700;4.880;2023-07-08T15:46:04;35.00;56.30
17092;DHT22;8661;45.700;4.880;2023-07-08T15:48:33;35.00;56.60
17092;DHT22;8661;45.700;4.880;2023-07-08T15:51:00;34.80;56.30
17092;DHT22;8661;45.700;4.880;2023-07-08T15:53:27;34.60;56.40
17092;DHT22;8661;45.700;4.880;2023-07-08T15:55:54;34.50;56.80
17092;DHT22;8661;45.700;4.880;2023-07-08T15:58:25;34.50;57.00
17092;DHT22;8661;45.700;4.880;2023-07-08T16:00:53;34.50;57.30
17092;DHT22;8661;45.700;4.880;2023-07-08T16:03:24;34.60;57.80
17092;DHT22;8661;45.700;4.880;2023-07-08T16:05:52;34.60;58.00
17092;DHT22;8661;45.700;4.880;2023-07-08T16:08:20;34.60;58.10